sensor_id;sensor_type;location;lat;lon;timestamp;P1;durP1;ratioP1;P2;durP2;ratioP2
68455;SDS011;55437;55.046;38.838;2023-09-19T00:01:42;65.78;;;12.23;;
68455;SDS011;55437;55.046;38.838;2023-09-19T00:04:14;34.33;;;11.32;;
68455;SDS011;55437;55.046;38.838;2023-09-19T00:06:40;34.25;;;13.60;;
68455;SDS011;55437;55.046;38.838;2023-09-19T00:09:06;26.38;;;12.35;;
68455;SDS011;55437;55.046;38.838;2023-09-19T00:11:36;28.10;;;12.48;;
68455;SDS011;55437;55.046;38.838;2023-09-19T00:14:03;49.17;;;14.93;;
68455;SDS011;55437;55.046;38.838;2023-09-19T00:16:34;62.55;;;16.00;;
68455;SDS011;55437;55.046;38.838;2023-09-19T00:19:01;99.50;;;15.77;;
68455;SDS011;55437;55.046;38.838;2023-09-19T00:21:33;110.18;;;20.08;;
68455;SDS011;55437;55.046;38.838;2023-09-19T00:23:59;227.13;;;23.92;;
68455;SDS011;55437;55.046;38.838;2023-09-19T00:26:25;192.77;;;20.70;;
68455;SDS011;55437;55.046;38.838;2023-09-19T00:28:54;192.73;;;20.70;;
68455;SDS011;55437;55.046;38.838;2023-09-19T00:31:21;103.47;;;18.10;;
68455;SDS011;55437;55.046;38.838;2023-09-19T00:33:50;232.13;;;24.02;;
68455;SDS011;55437;55.046;38.838;2023-09-19T00:36:17;97.53;;;16.05;;
68455;SDS011;55437;55.046;38.838;2023-09-19T00:38:43;104.90;;;16.77;;
68455;SDS011;55437;55.046;38.838;2023-09-19T00:41:11;61.90;;;14.35;;
68455;SDS011;55437;55.046;38.838;2023-09-19T00:43:38;124.30;;;16.58;;
68455;SDS011;55437;55.046;38.838;2023-09-19T00:46:05;172.15;;;17.90;;
68455;SDS011;55437;55.046;38.838;2023-09-19T00:48:31;62.45;;;15.23;;
68455;SDS011;55437;55.046;38.838;2023-09-19T00:51:04;186.98;;;19.58;;
68455;SDS011;55437;55.046;38.838;2023-09-19T00:53:30;81.38;;;16.13;;
68455;SDS011;55437;55.046;38.838;2023-09-19T00:55:56;174.75;;;19.77;;
68455;SDS011;55437;55.046;38.838;2023-09-19T00:58:22;50.10;;;16.67;;
68455;SDS011;55437;55.046;38.838;2023-09-19T01:00:48;43.83;;;14.60;;
68455;SDS011;55437;55.046;38.838;2023-09-19T01:03:15;120.45;;;17.38;;
68455;SDS011;55437;55.046;38.838;2023-09-19T01:05:41;109.93;;;18.52;;
68455;SDS011;55437;55.046;38.838;2023-09-19T01:08:08;112.80;;;16.88;;
68455;SDS011;55437;55.046;38.838;2023-09-19T01:10:34;84.72;;;16.70;;
68455;SDS011;55437;55.046;38.838;2023-09-19T01:13:09;97.15;;;14.75;;
68455;SDS011;55437;55.046;38.838;2023-09-19T01:16:04;43.47;;;13.93;;
68455;SDS011;55437;55.046;38.838;2023-09-19T01:24:34;44.17;;;11.63;;
68455;SDS011;55437;55.046;38.838;2023-09-19T01:30:30;110.35;;;15.05;;
68455;SDS011;55437;55.046;38.838;2023-09-19T01:32:58;37.45;;;12.82;;
68455;SDS011;55437;55.046;38.838;2023-09-19T01:35:25;38.28;;;11.52;;
68455;SDS011;55437;55.046;38.838;2023-09-19T01:37:51;67.45;;;13.55;;
68455;SDS011;55437;55.046;38.838;2023-09-19T01:40:19;57.45;;;12.63;;
68455;SDS011;55437;55.046;38.838;2023-09-19T01:45:31;33.53;;;11.45;;
68455;SDS011;55437;55.046;38.838;2023-09-19T01:50:44;27.75;;;9.82;;
68455;SDS011;55437;55.046;38.838;2023-09-19T01:53:30;25.25;;;10.50;;
68455;SDS011;55437;55.046;38.838;2023-09-19T01:56:01;59.03;;;11.75;;
68455;SDS011;55437;55.046;38.838;2023-09-19T01:58:37;24.20;;;10.00;;
68455;SDS011;55437;55.046;38.838;2023-09-19T02:01:21;23.38;;;10.32;;
68455;SDS011;55437;55.046;38.838;2023-09-19T02:03:48;48.13;;;10.02;;
68455;SDS011;55437;55.046;38.838;2023-09-19T02:06:15;22.98;;;9.00;;
68455;SDS011;55437;55.046;38.838;2023-09-19T02:08:43;21.38;;;9.30;;
68455;SDS011;55437;55.046;38.838;2023-09-19T02:11:13;27.73;;;9.32;;
68455;SDS011;55437;55.046;38.838;2023-09-19T02:13:40;27.08;;;9.27;;
68455;SDS011;55437;55.046;38.838;2023-09-19T02:16:08;26.80;;;9.45;;
68455;SDS011;55437;55.046;38.838;2023-09-19T02:18:36;35.05;;;9.00;;
68455;SDS011;55437;55.046;38.838;2023-09-19T02:21:03;26.90;;;9.55;;
68455;SDS011;55437;55.046;38.838;2023-09-19T02:23:30;20.45;;;9.10;;
68455;SDS011;55437;55.046;38.838;2023-09-19T02:25:59;22.90;;;8.52;;
68455;SDS011;55437;55.046;38.838;2023-09-19T02:28:29;50.03;;;8.85;;
68455;SDS011;55437;55.046;38.838;2023-09-19T02:30:58;46.30;;;9.63;;
68455;SDS011;55437;55.046;38.838;2023-09-19T02:33:24;40.90;;;9.35;;
68455;SDS011;55437;55.046;38.838;2023-09-19T02:35:56;27.58;;;8.85;;
68455;SDS011;55437;55.046;38.838;2023-09-19T02:38:25;25.73;;;9.20;;
68455;SDS011;55437;55.046;38.838;2023-09-19T02:40:52;25.85;;;8.90;;
68455;SDS011;55437;55.046;38.838;2023-09-19T02:43:18;63.70;;;10.93;;
68455;SDS011;55437;55.046;38.838;2023-09-19T02:45:48;32.17;;;8.63;;
68455;SDS011;55437;55.046;38.838;2023-09-19T02:48:22;55.03;;;10.63;;
68455;SDS011;55437;55.046;38.838;2023-09-19T02:50:51;48.78;;;10.10;;
68455;SDS011;55437;55.046;38.838;2023-09-19T02:53:17;45.90;;;9.27;;
68455;SDS011;55437;55.046;38.838;2023-09-19T02:55:44;51.72;;;9.73;;
68455;SDS011;55437;55.046;38.838;2023-09-19T02:58:11;40.80;;;8.45;;
68455;SDS011;55437;55.046;38.838;2023-09-19T03:00:40;73.05;;;8.70;;
68455;SDS011;55437;55.046;38.838;2023-09-19T03:03:08;68.15;;;9.68;;
68455;SDS011;55437;55.046;38.838;2023-09-19T03:05:34;49.08;;;9.68;;
68455;SDS011;55437;55.046;38.838;2023-09-19T03:08:00;19.45;;;8.45;;
68455;SDS011;55437;55.046;38.838;2023-09-19T03:10:27;17.98;;;7.78;;
68455;SDS011;55437;55.046;38.838;2023-09-19T03:12:55;33.03;;;8.88;;
68455;SDS011;55437;55.046;38.838;2023-09-19T03:15:22;17.35;;;7.75;;
68455;SDS011;55437;55.046;38.838;2023-09-19T03:17:49;28.33;;;8.35;;
68455;SDS011;55437;55.046;38.838;2023-09-19T03:20:20;29.77;;;7.75;;
68455;SDS011;55437;55.046;38.838;2023-09-19T03:22:48;23.60;;;7.68;;
68455;SDS011;55437;55.046;38.838;2023-09-19T03:25:16;36.17;;;8.65;;
68455;SDS011;55437;55.046;38.838;2023-09-19T03:27:44;21.20;;;7.68;;
68455;SDS011;55437;55.046;38.838;2023-09-19T03:30:11;35.92;;;8.13;;
68455;SDS011;55437;55.046;38.838;2023-09-19T03:32:44;23.58;;;7.50;;
68455;SDS011;55437;55.046;38.838;2023-09-19T03:35:30;40.83;;;8.75;;
68455;SDS011;55437;55.046;38.838;2023-09-19T03:37:56;22.13;;;8.02;;
68455;SDS011;55437;55.046;38.838;2023-09-19T03:40:23;27.75;;;8.18;;
68455;SDS011;55437;55.046;38.838;2023-09-19T03:42:50;27.17;;;9.27;;
68455;SDS011;55437;55.046;38.838;2023-09-19T03:45:17;24.35;;;8.38;;
68455;SDS011;55437;55.046;38.838;2023-09-19T03:47:47;23.38;;;8.30;;
68455;SDS011;55437;55.046;38.838;2023-09-19T03:50:16;62.85;;;9.55;;
68455;SDS011;55437;55.046;38.838;2023-09-19T03:52:44;23.83;;;7.97;;
68455;SDS011;55437;55.046;38.838;2023-09-19T03:55:10;41.90;;;9.30;;
68455;SDS011;55437;55.046;38.838;2023-09-19T03:57:38;27.23;;;8.32;;
68455;SDS011;55437;55.046;38.838;2023-09-19T04:00:04;18.50;;;7.93;;
68455;SDS011;55437;55.046;38.838;2023-09-19T04:02:39;21.23;;;8.75;;
68455;SDS011;55437;55.046;38.838;2023-09-19T04:05:07;25.30;;;8.75;;
68455;SDS011;55437;55.046;38.838;2023-09-19T04:07:34;22.67;;;8.50;;
68455;SDS011;55437;55.046;38.838;2023-09-19T04:10:00;23.48;;;8.40;;
68455;SDS011;55437;55.046;38.838;2023-09-19T04:12:31;25.67;;;8.38;;
68455;SDS011;55437;55.046;38.838;2023-09-19T04:14:58;18.77;;;7.60;;
68455;SDS011;55437;55.046;38.838;2023-09-19T04:17:24;17.40;;;8.02;;
68455;SDS011;55437;55.046;38.838;2023-09-19T04:19:50;18.90;;;8.52;;
68455;SDS011;55437;55.046;38.838;2023-09-19T04:22:16;29.38;;;9.75;;
68455;SDS011;55437;55.046;38.838;2023-09-19T04:24:42;21.20;;;8.65;;
68455;SDS011;55437;55.046;38.838;2023-09-19T04:27:08;22.55;;;9.27;;
68455;SDS011;55437;55.046;38.838;2023-09-19T04:29:35;23.58;;;8.77;;
68455;SDS011;55437;55.046;38.838;2023-09-19T04:32:01;22.38;;;10.32;;
68455;SDS011;55437;55.046;38.838;2023-09-19T04:34:30;44.67;;;10.57;;
68455;SDS011;55437;55.046;38.838;2023-09-19T04:36:56;17.70;;;8.18;;
68455;SDS011;55437;55.046;38.838;2023-09-19T04:39:24;34.40;;;9.38;;
68455;SDS011;55437;55.046;38.838;2023-09-19T04:41:52;17.50;;;8.88;;
68455;SDS011;55437;55.046;38.838;2023-09-19T04:44:18;27.90;;;9.07;;
68455;SDS011;55437;55.046;38.838;2023-09-19T04:46:44;19.65;;;8.98;;
68455;SDS011;55437;55.046;38.838;2023-09-19T04:49:13;14.43;;;7.20;;
68455;SDS011;55437;55.046;38.838;2023-09-19T04:51:39;16.75;;;8.23;;
68455;SDS011;55437;55.046;38.838;2023-09-19T04:54:06;21.67;;;8.30;;
68455;SDS011;55437;55.046;38.838;2023-09-19T04:56:32;16.67;;;7.80;;
68455;SDS011;55437;55.046;38.838;2023-09-19T04:58:59;17.05;;;9.10;;
68455;SDS011;55437;55.046;38.838;2023-09-19T05:01:25;17.00;;;7.95;;
68455;SDS011;55437;55.046;38.838;2023-09-19T05:03:52;17.50;;;8.38;;
68455;SDS011;55437;55.046;38.838;2023-09-19T05:06:19;16.25;;;8.80;;
68455;SDS011;55437;55.046;38.838;2023-09-19T05:08:49;17.27;;;8.35;;
68455;SDS011;55437;55.046;38.838;2023-09-19T05:11:18;18.58;;;9.00;;
68455;SDS011;55437;55.046;38.838;2023-09-19T05:13:45;20.20;;;7.97;;
68455;SDS011;55437;55.046;38.838;2023-09-19T05:16:11;17.73;;;9.52;;
68455;SDS011;55437;55.046;38.838;2023-09-19T05:18:36;18.92;;;8.93;;
68455;SDS011;55437;55.046;38.838;2023-09-19T05:21:02;19.65;;;9.07;;
68455;SDS011;55437;55.046;38.838;2023-09-19T05:23:28;16.50;;;8.40;;
68455;SDS011;55437;55.046;38.838;2023-09-19T05:25:54;15.70;;;8.45;;
68455;SDS011;55437;55.046;38.838;2023-09-19T05:28:22;20.75;;;9.32;;
68455;SDS011;55437;55.046;38.838;2023-09-19T05:30:49;17.52;;;8.70;;
68455;SDS011;55437;55.046;38.838;2023-09-19T05:33:15;18.38;;;8.85;;
68455;SDS011;55437;55.046;38.838;2023-09-19T05:35:41;17.52;;;8.80;;
68455;SDS011;55437;55.046;38.838;2023-09-19T05:38:07;14.95;;;7.75;;
68455;SDS011;55437;55.046;38.838;2023-09-19T05:40:38;17.63;;;9.25;;
68455;SDS011;55437;55.046;38.838;2023-09-19T05:43:08;14.80;;;8.15;;
68455;SDS011;55437;55.046;38.838;2023-09-19T05:45:34;15.65;;;8.80;;
68455;SDS011;55437;55.046;38.838;2023-09-19T05:48:08;15.05;;;7.85;;
68455;SDS011;55437;55.046;38.838;2023-09-19T05:50:37;14.80;;;9.30;;
68455;SDS011;55437;55.046;38.838;2023-09-19T05:53:04;14.82;;;9.18;;
68455;SDS011;55437;55.046;38.838;2023-09-19T05:55:30;14.88;;;8.35;;
68455;SDS011;55437;55.046;38.838;2023-09-19T05:57:57;15.07;;;7.97;;
68455;SDS011;55437;55.046;38.838;2023-09-19T06:00:23;16.73;;;9.02;;
68455;SDS011;55437;55.046;38.838;2023-09-19T06:02:53;16.52;;;9.10;;
68455;SDS011;55437;55.046;38.838;2023-09-19T06:05:20;15.57;;;8.43;;
68455;SDS011;55437;55.046;38.838;2023-09-19T06:07:46;14.68;;;8.55;;
68455;SDS011;55437;55.046;38.838;2023-09-19T06:10:12;16.85;;;10.18;;
68455;SDS011;55437;55.046;38.838;2023-09-19T06:12:43;15.85;;;8.93;;
68455;SDS011;55437;55.046;38.838;2023-09-19T06:15:10;16.00;;;9.25;;
68455;SDS011;55437;55.046;38.838;2023-09-19T06:17:51;17.13;;;9.27;;
68455;SDS011;55437;55.046;38.838;2023-09-19T06:20:23;20.30;;;9.65;;
68455;SDS011;55437;55.046;38.838;2023-09-19T06:22:50;17.25;;;9.52;;
68455;SDS011;55437;55.046;38.838;2023-09-19T06:25:17;15.55;;;9.88;;
68455;SDS011;55437;55.046;38.838;2023-09-19T06:27:48;23.13;;;8.85;;
68455;SDS011;55437;55.046;38.838;2023-09-19T06:30:18;15.98;;;8.85;;
68455;SDS011;55437;55.046;38.838;2023-09-19T06:32:49;15.98;;;9.10;;
68455;SDS011;55437;55.046;38.838;2023-09-19T06:35:22;17.48;;;8.48;;
68455;SDS011;55437;55.046;38.838;2023-09-19T06:37:48;15.70;;;8.98;;
68455;SDS011;55437;55.046;38.838;2023-09-19T06:40:14;14.50;;;8.45;;
68455;SDS011;55437;55.046;38.838;2023-09-19T06:42:42;17.95;;;8.85;;
68455;SDS011;55437;55.046;38.838;2023-09-19T06:45:13;16.13;;;9.07;;
68455;SDS011;55437;55.046;38.838;2023-09-19T06:47:43;17.70;;;9.68;;
68455;SDS011;55437;55.046;38.838;2023-09-19T06:50:17;19.02;;;10.77;;
68455;SDS011;55437;55.046;38.838;2023-09-19T06:52:45;18.40;;;8.57;;
68455;SDS011;55437;55.046;38.838;2023-09-19T06:55:16;18.33;;;9.60;;
68455;SDS011;55437;55.046;38.838;2023-09-19T06:57:43;18.85;;;9.15;;
68455;SDS011;55437;55.046;38.838;2023-09-19T07:00:09;15.20;;;8.82;;
68455;SDS011;55437;55.046;38.838;2023-09-19T07:02:57;17.48;;;9.32;;
68455;SDS011;55437;55.046;38.838;2023-09-19T07:05:44;15.25;;;8.95;;
68455;SDS011;55437;55.046;38.838;2023-09-19T07:08:13;16.52;;;9.10;;
68455;SDS011;55437;55.046;38.838;2023-09-19T07:10:43;18.15;;;9.48;;
68455;SDS011;55437;55.046;38.838;2023-09-19T07:13:14;16.10;;;9.32;;
68455;SDS011;55437;55.046;38.838;2023-09-19T07:15:43;17.35;;;8.77;;
68455;SDS011;55437;55.046;38.838;2023-09-19T07:18:13;19.70;;;9.65;;
68455;SDS011;55437;55.046;38.838;2023-09-19T07:20:42;18.10;;;9.40;;
68455;SDS011;55437;55.046;38.838;2023-09-19T07:23:15;15.45;;;8.93;;
68455;SDS011;55437;55.046;38.838;2023-09-19T07:25:45;16.45;;;8.50;;
68455;SDS011;55437;55.046;38.838;2023-09-19T07:28:12;15.10;;;7.75;;
68455;SDS011;55437;55.046;38.838;2023-09-19T07:30:38;16.48;;;8.90;;
68455;SDS011;55437;55.046;38.838;2023-09-19T07:33:05;14.40;;;8.13;;
68455;SDS011;55437;55.046;38.838;2023-09-19T07:35:31;16.77;;;8.35;;
68455;SDS011;55437;55.046;38.838;2023-09-19T07:37:58;15.85;;;8.05;;
68455;SDS011;55437;55.046;38.838;2023-09-19T07:40:27;19.90;;;8.48;;
68455;SDS011;55437;55.046;38.838;2023-09-19T07:43:12;16.98;;;9.13;;
68455;SDS011;55437;55.046;38.838;2023-09-19T07:45:38;14.52;;;7.88;;
68455;SDS011;55437;55.046;38.838;2023-09-19T07:48:05;13.80;;;7.90;;
68455;SDS011;55437;55.046;38.838;2023-09-19T07:50:33;17.33;;;8.30;;
68455;SDS011;55437;55.046;38.838;2023-09-19T07:53:03;18.15;;;8.55;;
68455;SDS011;55437;55.046;38.838;2023-09-19T07:55:34;14.23;;;7.72;;
68455;SDS011;55437;55.046;38.838;2023-09-19T07:58:00;15.88;;;9.05;;
68455;SDS011;55437;55.046;38.838;2023-09-19T08:00:32;17.92;;;8.40;;
68455;SDS011;55437;55.046;38.838;2023-09-19T08:03:00;17.08;;;8.07;;
68455;SDS011;55437;55.046;38.838;2023-09-19T08:05:26;15.40;;;7.78;;
68455;SDS011;55437;55.046;38.838;2023-09-19T08:07:53;18.08;;;8.20;;
68455;SDS011;55437;55.046;38.838;2023-09-19T08:10:19;19.17;;;8.48;;
68455;SDS011;55437;55.046;38.838;2023-09-19T08:12:46;16.15;;;7.47;;
68455;SDS011;55437;55.046;38.838;2023-09-19T08:15:17;15.75;;;8.40;;
68455;SDS011;55437;55.046;38.838;2023-09-19T08:17:48;15.70;;;8.43;;
68455;SDS011;55437;55.046;38.838;2023-09-19T08:20:18;17.83;;;9.13;;
68455;SDS011;55437;55.046;38.838;2023-09-19T08:22:51;15.30;;;8.77;;
68455;SDS011;55437;55.046;38.838;2023-09-19T08:25:20;17.92;;;8.73;;
68455;SDS011;55437;55.046;38.838;2023-09-19T08:27:48;19.02;;;9.20;;
68455;SDS011;55437;55.046;38.838;2023-09-19T08:30:15;17.80;;;8.32;;
68455;SDS011;55437;55.046;38.838;2023-09-19T08:32:43;16.15;;;8.82;;
68455;SDS011;55437;55.046;38.838;2023-09-19T08:35:15;15.90;;;8.60;;
68455;SDS011;55437;55.046;38.838;2023-09-19T08:37:44;16.38;;;8.88;;
68455;SDS011;55437;55.046;38.838;2023-09-19T08:40:13;20.38;;;8.35;;
68455;SDS011;55437;55.046;38.838;2023-09-19T08:45:20;16.15;;;8.73;;
68455;SDS011;55437;55.046;38.838;2023-09-19T08:50:47;22.90;;;8.80;;
68455;SDS011;55437;55.046;38.838;2023-09-19T08:53:21;18.80;;;8.50;;
68455;SDS011;55437;55.046;38.838;2023-09-19T08:56:14;16.05;;;8.70;;
68455;SDS011;55437;55.046;38.838;2023-09-19T08:58:45;21.17;;;9.18;;
68455;SDS011;55437;55.046;38.838;2023-09-19T09:01:15;23.00;;;9.93;;
68455;SDS011;55437;55.046;38.838;2023-09-19T09:03:55;17.55;;;9.60;;
68455;SDS011;55437;55.046;38.838;2023-09-19T09:06:22;18.23;;;9.25;;
68455;SDS011;55437;55.046;38.838;2023-09-19T09:08:52;19.48;;;9.50;;
68455;SDS011;55437;55.046;38.838;2023-09-19T09:11:19;18.35;;;9.27;;
68455;SDS011;55437;55.046;38.838;2023-09-19T09:13:45;20.42;;;9.32;;
68455;SDS011;55437;55.046;38.838;2023-09-19T09:16:13;18.77;;;9.23;;
68455;SDS011;55437;55.046;38.838;2023-09-19T09:18:44;16.85;;;9.27;;
68455;SDS011;55437;55.046;38.838;2023-09-19T09:21:12;14.85;;;8.50;;
68455;SDS011;55437;55.046;38.838;2023-09-19T09:23:41;16.63;;;8.30;;
68455;SDS011;55437;55.046;38.838;2023-09-19T09:26:07;15.57;;;8.38;;
68455;SDS011;55437;55.046;38.838;2023-09-19T09:28:35;16.23;;;8.15;;
68455;SDS011;55437;55.046;38.838;2023-09-19T09:31:21;18.13;;;9.02;;
68455;SDS011;55437;55.046;38.838;2023-09-19T09:33:52;17.92;;;9.32;;
68455;SDS011;55437;55.046;38.838;2023-09-19T09:39:07;16.23;;;7.70;;
68455;SDS011;55437;55.046;38.838;2023-09-19T09:41:51;18.65;;;8.90;;
68455;SDS011;55437;55.046;38.838;2023-09-19T09:44:27;19.55;;;8.65;;
68455;SDS011;55437;55.046;38.838;2023-09-19T09:47:01;17.13;;;8.45;;
68455;SDS011;55437;55.046;38.838;2023-09-19T09:49:49;17.95;;;8.63;;
68455;SDS011;55437;55.046;38.838;2023-09-19T09:52:19;17.98;;;8.82;;
68455;SDS011;55437;55.046;38.838;2023-09-19T09:54:59;14.52;;;8.18;;
68455;SDS011;55437;55.046;38.838;2023-09-19T09:57:36;17.95;;;9.18;;
68455;SDS011;55437;55.046;38.838;2023-09-19T10:00:32;18.23;;;8.40;;
68455;SDS011;55437;55.046;38.838;2023-09-19T10:03:19;16.98;;;9.13;;
68455;SDS011;55437;55.046;38.838;2023-09-19T10:06:07;16.67;;;8.50;;
68455;SDS011;55437;55.046;38.838;2023-09-19T10:09:06;18.65;;;8.05;;
68455;SDS011;55437;55.046;38.838;2023-09-19T10:11:46;15.60;;;7.88;;
68455;SDS011;55437;55.046;38.838;2023-09-19T10:14:17;16.70;;;8.07;;
68455;SDS011;55437;55.046;38.838;2023-09-19T10:16:49;16.85;;;8.45;;
68455;SDS011;55437;55.046;38.838;2023-09-19T10:19:20;18.08;;;8.38;;
68455;SDS011;55437;55.046;38.838;2023-09-19T10:21:52;18.70;;;8.45;;
68455;SDS011;55437;55.046;38.838;2023-09-19T10:24:27;19.05;;;7.75;;
68455;SDS011;55437;55.046;38.838;2023-09-19T10:26:59;17.95;;;7.45;;
68455;SDS011;55437;55.046;38.838;2023-09-19T10:29:50;15.77;;;8.05;;
68455;SDS011;55437;55.046;38.838;2023-09-19T10:32:29;16.10;;;8.45;;
68455;SDS011;55437;55.046;38.838;2023-09-19T10:34:59;16.67;;;7.65;;
68455;SDS011;55437;55.046;38.838;2023-09-19T10:37:26;22.40;;;7.05;;
68455;SDS011;55437;55.046;38.838;2023-09-19T10:39:55;16.92;;;7.72;;
68455;SDS011;55437;55.046;38.838;2023-09-19T10:42:28;20.45;;;8.88;;
68455;SDS011;55437;55.046;38.838;2023-09-19T10:45:17;15.88;;;7.55;;
68455;SDS011;55437;55.046;38.838;2023-09-19T10:47:52;17.92;;;7.93;;
68455;SDS011;55437;55.046;38.838;2023-09-19T10:50:25;17.95;;;7.38;;
68455;SDS011;55437;55.046;38.838;2023-09-19T10:53:02;19.63;;;8.15;;
68455;SDS011;55437;55.046;38.838;2023-09-19T10:55:56;19.08;;;7.85;;
68455;SDS011;55437;55.046;38.838;2023-09-19T10:58:33;13.45;;;7.18;;
68455;SDS011;55437;55.046;38.838;2023-09-19T11:01:08;13.50;;;7.63;;
68455;SDS011;55437;55.046;38.838;2023-09-19T11:03:52;14.75;;;7.47;;
68455;SDS011;55437;55.046;38.838;2023-09-19T11:07:14;14.57;;;7.38;;
68455;SDS011;55437;55.046;38.838;2023-09-19T11:09:44;17.63;;;7.80;;
68455;SDS011;55437;55.046;38.838;2023-09-19T11:16:02;13.25;;;6.65;;
68455;SDS011;55437;55.046;38.838;2023-09-19T11:21:51;19.80;;;7.88;;
68455;SDS011;55437;55.046;38.838;2023-09-19T11:27:08;13.55;;;6.53;;
68455;SDS011;55437;55.046;38.838;2023-09-19T11:29:37;14.02;;;7.18;;
68455;SDS011;55437;55.046;38.838;2023-09-19T11:32:05;20.08;;;8.38;;
68455;SDS011;55437;55.046;38.838;2023-09-19T11:42:48;19.02;;;7.38;;
68455;SDS011;55437;55.046;38.838;2023-09-19T11:48:18;19.02;;;6.85;;
68455;SDS011;55437;55.046;38.838;2023-09-19T11:50:51;17.67;;;8.48;;
68455;SDS011;55437;55.046;38.838;2023-09-19T11:53:20;18.83;;;8.52;;
68455;SDS011;55437;55.046;38.838;2023-09-19T11:55:48;18.60;;;7.35;;
68455;SDS011;55437;55.046;38.838;2023-09-19T11:58:20;17.85;;;7.80;;
68455;SDS011;55437;55.046;38.838;2023-09-19T12:03:46;17.77;;;8.10;;
68455;SDS011;55437;55.046;38.838;2023-09-19T12:06:34;21.40;;;8.25;;
68455;SDS011;55437;55.046;38.838;2023-09-19T12:09:13;15.95;;;7.97;;
68455;SDS011;55437;55.046;38.838;2023-09-19T12:11:46;18.55;;;7.88;;
68455;SDS011;55437;55.046;38.838;2023-09-19T12:14:21;16.15;;;8.13;;
68455;SDS011;55437;55.046;38.838;2023-09-19T12:16:59;17.08;;;8.18;;
68455;SDS011;55437;55.046;38.838;2023-09-19T12:19:38;16.77;;;7.53;;
68455;SDS011;55437;55.046;38.838;2023-09-19T12:24:43;14.70;;;7.55;;
68455;SDS011;55437;55.046;38.838;2023-09-19T12:27:20;18.50;;;7.43;;
68455;SDS011;55437;55.046;38.838;2023-09-19T12:32:35;19.08;;;7.88;;
68455;SDS011;55437;55.046;38.838;2023-09-19T12:35:06;17.38;;;8.40;;
68455;SDS011;55437;55.046;38.838;2023-09-19T12:37:43;16.27;;;7.57;;
68455;SDS011;55437;55.046;38.838;2023-09-19T12:40:14;14.02;;;7.97;;
68455;SDS011;55437;55.046;38.838;2023-09-19T12:42:48;17.75;;;8.25;;
68455;SDS011;55437;55.046;38.838;2023-09-19T12:45:15;18.65;;;8.85;;
68455;SDS011;55437;55.046;38.838;2023-09-19T12:51:00;18.33;;;8.02;;
68455;SDS011;55437;55.046;38.838;2023-09-19T12:53:40;17.38;;;7.57;;
68455;SDS011;55437;55.046;38.838;2023-09-19T12:56:09;18.83;;;7.80;;
68455;SDS011;55437;55.046;38.838;2023-09-19T13:01:23;19.00;;;8.07;;
68455;SDS011;55437;55.046;38.838;2023-09-19T13:06:45;18.02;;;7.65;;
68455;SDS011;55437;55.046;38.838;2023-09-19T13:09:22;19.80;;;7.93;;
68455;SDS011;55437;55.046;38.838;2023-09-19T13:12:00;23.25;;;8.90;;
68455;SDS011;55437;55.046;38.838;2023-09-19T13:14:28;18.55;;;8.35;;
68455;SDS011;55437;55.046;38.838;2023-09-19T13:17:08;17.95;;;8.25;;
68455;SDS011;55437;55.046;38.838;2023-09-19T13:25:09;14.68;;;6.88;;
68455;SDS011;55437;55.046;38.838;2023-09-19T13:27:49;18.35;;;7.75;;
68455;SDS011;55437;55.046;38.838;2023-09-19T13:30:30;15.13;;;7.40;;
68455;SDS011;55437;55.046;38.838;2023-09-19T13:33:12;16.65;;;7.80;;
68455;SDS011;55437;55.046;38.838;2023-09-19T13:35:48;15.13;;;7.40;;
68455;SDS011;55437;55.046;38.838;2023-09-19T13:38:14;13.77;;;7.38;;
68455;SDS011;55437;55.046;38.838;2023-09-19T13:40:40;14.50;;;7.88;;
68455;SDS011;55437;55.046;38.838;2023-09-19T13:43:12;14.80;;;7.32;;
68455;SDS011;55437;55.046;38.838;2023-09-19T13:45:41;14.98;;;6.95;;
68455;SDS011;55437;55.046;38.838;2023-09-19T13:48:08;14.68;;;7.05;;
68455;SDS011;55437;55.046;38.838;2023-09-19T13:50:39;14.77;;;7.38;;
68455;SDS011;55437;55.046;38.838;2023-09-19T13:55:34;15.93;;;7.57;;
68455;SDS011;55437;55.046;38.838;2023-09-19T13:58:04;17.25;;;7.28;;
68455;SDS011;55437;55.046;38.838;2023-09-19T14:00:32;16.48;;;7.05;;
68455;SDS011;55437;55.046;38.838;2023-09-19T14:03:01;15.95;;;7.70;;
68455;SDS011;55437;55.046;38.838;2023-09-19T14:05:31;15.98;;;7.38;;
68455;SDS011;55437;55.046;38.838;2023-09-19T14:08:01;13.75;;;7.65;;
68455;SDS011;55437;55.046;38.838;2023-09-19T14:10:31;20.45;;;9.77;;
68455;SDS011;55437;55.046;38.838;2023-09-19T14:12:57;21.42;;;9.68;;
68455;SDS011;55437;55.046;38.838;2023-09-19T14:15:27;14.40;;;7.78;;
68455;SDS011;55437;55.046;38.838;2023-09-19T14:18:05;16.50;;;8.00;;
68455;SDS011;55437;55.046;38.838;2023-09-19T14:20:50;15.18;;;8.18;;
68455;SDS011;55437;55.046;38.838;2023-09-19T14:23:22;20.20;;;8.60;;
68455;SDS011;55437;55.046;38.838;2023-09-19T14:26:12;14.27;;;6.88;;
68455;SDS011;55437;55.046;38.838;2023-09-19T14:28:44;17.35;;;8.13;;
68455;SDS011;55437;55.046;38.838;2023-09-19T14:31:10;18.35;;;9.63;;
68455;SDS011;55437;55.046;38.838;2023-09-19T14:33:37;18.25;;;9.73;;
68455;SDS011;55437;55.046;38.838;2023-09-19T14:36:08;15.98;;;8.65;;
68455;SDS011;55437;55.046;38.838;2023-09-19T14:38:37;15.60;;;8.27;;
68455;SDS011;55437;55.046;38.838;2023-09-19T14:41:04;18.58;;;9.02;;
68455;SDS011;55437;55.046;38.838;2023-09-19T14:43:31;17.52;;;8.00;;
68455;SDS011;55437;55.046;38.838;2023-09-19T14:46:06;15.35;;;9.05;;
68455;SDS011;55437;55.046;38.838;2023-09-19T14:48:41;20.23;;;9.10;;
68455;SDS011;55437;55.046;38.838;2023-09-19T14:51:13;17.65;;;8.80;;
68455;SDS011;55437;55.046;38.838;2023-09-19T14:53:40;27.35;;;8.75;;
68455;SDS011;55437;55.046;38.838;2023-09-19T14:56:09;17.83;;;8.32;;
68455;SDS011;55437;55.046;38.838;2023-09-19T14:58:36;18.88;;;8.27;;
68455;SDS011;55437;55.046;38.838;2023-09-19T15:01:11;15.45;;;8.52;;
68455;SDS011;55437;55.046;38.838;2023-09-19T15:03:44;16.98;;;8.40;;
68455;SDS011;55437;55.046;38.838;2023-09-19T15:06:12;19.05;;;8.90;;
68455;SDS011;55437;55.046;38.838;2023-09-19T15:08:44;16.73;;;8.25;;
68455;SDS011;55437;55.046;38.838;2023-09-19T15:11:23;16.50;;;8.63;;
68455;SDS011;55437;55.046;38.838;2023-09-19T15:13:52;24.23;;;8.25;;
68455;SDS011;55437;55.046;38.838;2023-09-19T15:16:25;18.13;;;8.40;;
68455;SDS011;55437;55.046;38.838;2023-09-19T15:18:54;15.52;;;8.32;;
68455;SDS011;55437;55.046;38.838;2023-09-19T15:21:21;18.75;;;8.70;;
68455;SDS011;55437;55.046;38.838;2023-09-19T15:23:48;16.70;;;8.95;;
68455;SDS011;55437;55.046;38.838;2023-09-19T15:26:15;20.98;;;9.18;;
68455;SDS011;55437;55.046;38.838;2023-09-19T15:28:47;15.95;;;8.43;;
68455;SDS011;55437;55.046;38.838;2023-09-19T15:31:14;18.88;;;9.32;;
68455;SDS011;55437;55.046;38.838;2023-09-19T15:33:41;24.85;;;10.55;;
68455;SDS011;55437;55.046;38.838;2023-09-19T15:36:12;16.75;;;8.88;;
68455;SDS011;55437;55.046;38.838;2023-09-19T15:41:22;19.55;;;10.38;;
68455;SDS011;55437;55.046;38.838;2023-09-19T15:43:54;20.73;;;10.35;;
68455;SDS011;55437;55.046;38.838;2023-09-19T15:46:21;20.77;;;9.98;;
68455;SDS011;55437;55.046;38.838;2023-09-19T15:48:47;21.63;;;11.00;;
68455;SDS011;55437;55.046;38.838;2023-09-19T15:51:13;25.33;;;10.75;;